Crawl Fork Morgues: Snelheid

This page displays a history of all games played by Snelheid on supported crawl forks.
Click on the score to view the character file.

ScoreCharacterGodTitlePlaceEndXLTurnsDurationRunesDateVersion
2NaTKCheibriadosChopperD:1slain by a hobgoblin165800:00:2102018-12-28 20:01:385.7
0NaTKCheibriadosContemplativeD:3slain by a worker ant62,11900:03:5502018-12-28 20:01:085.7
5NaTKCheibriadosEpochalD:6blasted by a gargoyle (stone arrow)85,03000:08:2602018-12-28 19:56:565.7
0NaTKCheibriadosChopperD:3slain by a worker ant51,96700:02:5902018-12-28 19:48:145.7
1NaTKCheibriadosContemplativeD:4slain by a gnoll (a +0 flail)65,17500:08:4602018-12-28 19:45:075.7
0NaTKCheibriadosChopperD:1slain by a kobold14300:00:4402018-12-28 19:35:505.7
60NaTKCheibriadosBasherD:11mangled by a cyan ugly thing129,01200:32:0302018-12-27 22:39:395.7
4FoTKCheibriadosSkirmisherD:4slain by an ogre (a -2 giant club)83,56100:08:1802018-12-27 01:12:315.7
0FoTKCheibriadosChopperD:2slain by a gnoll (a +2 spear of chaos)338500:01:3602018-12-27 01:04:045.7
0FoTKCheibriadosChopperD:2slain by an adder466900:01:5802018-12-27 01:02:155.7
145FoTKCheibriadosChopperD:4mangled by an ogre (a -1 giant club)72,55900:08:0302018-12-27 01:00:015.7
11NaTmRuffianD:2slain by a worm285500:01:4102018-03-02 17:52:510.22-a0
430NaTmChangerD:4blasted by an orc priest (divine providence)64,75900:10:5302018-03-02 17:50:060.22-a0
30NaTmChangerD:2slain by Terence (a +0 flail)31,82400:03:1602018-03-02 17:38:570.22-a0
274MfGlPokerD:3slain by Grinder63,76600:11:1102018-03-02 17:35:210.22-a0
78NaTmChangerD:3slain by a gnoll (a +1 flail of holy wrath)43,57200:05:5202018-03-02 05:21:270.22-a0
2NaTmRuffianD:1slain by a hobgoblin114300:00:2102018-03-02 05:15:290.22-a0
18NaTmChangerD:2slain by an adder21,35200:03:0002018-03-02 05:15:000.22-a0
0NaTmRuffianD:1slain by a hobgoblin116000:00:2202018-03-02 05:01:130.22-a0
9NaTmRuffianD:1slain by a gnoll280100:01:4202018-03-02 05:00:430.22-a0
203OpTmInseiD:4slain by lux767's ghost53,36600:15:1702018-03-02 04:35:030.22-a0
105OpTmInseiD:3slain by Sigmund (a +0 scythe)42,39300:06:2702018-03-02 03:31:380.22-a0
340OpTmCheibriadosInseiD:4blasted by an orc priest (divine providence)62,69600:09:1302018-03-02 03:24:470.22-a0
37OpTmInseiD:2slain by an adder31,94500:03:1002018-03-02 03:15:240.22-a0
14OpTmInseiD:1slain by a jackal271400:01:2702018-03-02 03:12:050.22-a0
49OpTmInseiD:3mangled by morty's ghost31,89500:04:0202018-03-02 03:10:280.22-a0
1OpTmInseiD:1slain by a hobgoblin (a +0 club)13700:00:1802018-03-02 03:03:440.22-a0
69OpTmInseiD:3slain by an orc wizard (a +0 dagger)41,81700:03:4702018-03-02 03:03:130.22-a0
2OpTmInseiD:1slain by a leopard gecko17500:01:1802018-03-02 02:59:000.22-a0
302OpTmCheibriadosInseiD:4slain by a gnoll shaman (a +0 whip)64,17900:24:3702018-03-02 02:56:480.22-a0
108OpTmCheibriadosInseiD:3slain by an orc (a +0 mace)41,62600:13:5502018-03-01 20:21:570.22-a0
99OpTmInseiD:3shot by a centaur (arrow)42,35600:14:5302018-03-01 20:07:400.22-a0
65OpTmInseiD:2mangled by a gnoll (a +0 halberd)41,55500:08:3402018-03-01 19:52:250.22-a0
162OpTmCheibriadosInseiD:3slain by a gnoll (a +0 flail)52,71100:20:5702018-03-01 19:43:290.22-a0
770OpTmAshenzariInseiD:6slain by a troll75,08200:37:0202018-03-01 19:16:420.22-a0
207OpTmGozagInseiD:4slain by an adder52,70300:16:3702018-03-01 17:12:220.22-a0
4OpTmInseiD:1slain by a hobgoblin (a +0 club)114600:01:0102018-03-01 16:55:050.22-a0
11OpTmInseiD:1slain by a gnoll (a +0 spear)248100:03:0402018-03-01 16:50:130.22-a0
14OpTmInseiD:1slain by a jackal241600:03:0802018-03-01 16:46:290.22-a0
18OpTmInseiD:1slain by a kobold (a +0 whip)248200:05:1402018-03-01 16:42:530.22-a0
46HONeGrave RobberD:2slain by a giant cockroach32,46400:05:2302018-03-01 05:50:030.22-a0
0DsNeGrave RobberD:1slain by a hobgoblin (a +0 club)16500:00:1702018-03-01 05:44:240.22-a0
43DrNeGrave RobberD:2slain by a goblin (a +0 dagger) (led by Robin)31,24600:03:4002018-03-01 05:43:360.22-a0
0DrNeGrave RobberD:1slain by a frilled lizard14400:00:4402018-03-01 05:39:440.22-a0
913MuSuSif MunaMagicianD:7blasted by a deep elf mage (bolt of fire)710,28100:40:3602018-03-01 05:12:310.22-a0
19MuSuCallerD:2slain by a worker ant21,22300:04:5602018-03-01 04:31:450.22-a0
639GnSuSif MunaCallerD:6mangled by an orc warrior (a +0 mace)76,94700:31:4902018-03-01 04:24:360.22-a0
5,149GnEnNemelex XobehCovertD:9succumbed to a killer bee's poison1010,82101:00:4202018-03-01 03:24:010.22-a0
1,864GnAsOkawaruCovertD:7slain by a wyvern96,36100:25:4002018-03-01 02:01:170.22-a0
49GnAsSneakD:2mangled by an ogre (a +0 giant club)31,17900:03:0402018-03-01 01:35:230.22-a0
54GnAsSneakD:2succumbed to Robin's poison31,03200:04:3202018-03-01 01:32:050.22-a0
235GnAsNemelex XobehCovertD:3slain by an orc priest (a +0 trident)62,02700:08:5302018-03-01 01:27:140.22-a0
109GnAsSneakD:3blasted by Grinder (nerve-wracking pain)42,71500:08:3802018-03-01 01:16:340.22-a0
631MuNeYredelemnulGrave RobberD:6slain by a gnoll (a +0 spear)77,44200:18:5702018-03-01 00:19:500.22-a0
42MuNeGrave RobberD:2slain by Sigmund (a +0 scythe)31,49900:05:0202018-03-01 00:00:330.22-a0
4,629MfBeTrogSpear-BearerD:8mangled by an orc warrior (a +0 glaive)1010,11500:32:0702018-02-28 23:47:070.22-a0
33HOFEFirebugD:2slain by an adder32,08000:03:4602018-02-28 23:13:040.22-a0
111HOFEXomFirebugD:3slain by Terence (a +2 morningstar of crushing)43,42000:10:5402018-02-28 23:08:570.22-a0
0MiFEDuckerD:$got out of the dungeon alive.1700:00:1202018-02-28 22:57:180.22-a0
1,196MiBeTrogCleaverD:6slain by a hornet84,66800:14:1502018-02-28 22:51:160.22-a0
381VpEnSneakD:5succumbed to an adder's poison64,19300:16:0702018-02-28 22:30:570.22-a0
96VpEnDithmenosSneakD:3slain by jerkstore's ghost42,89500:09:4102018-02-28 22:14:370.22-a0
47VpEnSneakD:2slain by a worm31,66200:02:5902018-02-28 22:04:410.22-a0
0VpEnVexingD:1slain by a kobold (a +0 short sword)11700:00:2502018-02-28 22:01:320.22-a0
7VpEnSneakD:1slain by a hobgoblin (a +0 club)127700:01:0402018-02-28 22:00:560.22-a0
53TeAEGustyD:2slain by a goblin (a +0 dagger) (led by Robin)31,79100:08:1302018-02-28 21:59:120.22-a0
96DrTmRuffianD:3blasted by an orc priest (divine providence)42,45400:07:3702018-02-28 21:50:130.22-a0
16DrTmRuffianD:1slain by a hobgoblin253200:02:0002018-02-28 21:40:080.22-a0
723DrArthe Shining OneCharlatanD:5slain by a gnoll73,85000:13:0402018-02-28 21:36:460.22-a0
2,286GrFEVehumetFirebugD:8slain by a two-headed ogre (a cursed -2 giant club)98,01000:40:5302018-02-28 21:19:270.22-a0
4GrFEFirebugD:1slain by a leopard gecko136000:02:0402018-02-28 20:03:180.22-a0
20HEWzMagicianD:1slain by a hobgoblin229600:02:3102018-02-28 19:58:480.22-a0
1HEWzMagicianD:1slain by a jackal136400:00:5002018-02-28 19:56:090.22-a0
0DEWzMagicianD:$got out of the dungeon alive.1100:00:1102018-02-28 19:55:020.22-a0
107DEWzMagicianD:3mangled by Sigmund (a +0 scythe)42,48300:10:5602018-02-28 19:54:240.22-a0
2,830MiBeTrogCleaverD:7slain by a cyclops95,08400:16:2902018-02-28 19:40:360.22-a0
17BaIEChillerD:2slain by a worm286500:03:0902018-02-28 19:20:440.22-a0
1VSIEChillerD:1slain by a hobgoblin (a +0 club)13500:00:4002018-02-28 19:16:570.22-a0
505MfSkPokerD:5blasted by an orc priest (divine providence)75,38600:13:5902018-02-28 19:12:270.22-a0
138HESkCharmwrightD:2blasted by an orc wizard (puff of frost)52,58100:07:3602018-02-28 18:58:050.22-a0
686SEEnSneakD:4blasted by Blork the orc (magic dart)75,82800:23:2802018-02-28 18:45:480.22-a0
3,465MiHuOkawaruArcherD:8slain by a hell hound910,43100:36:2502018-02-28 18:19:330.22-a0
71FoAKLugonuSkirmisherD:12hit from afar by a cyclops (large rock)42,91500:07:3602018-02-28 05:30:100.22-a0
172FoAKLugonuSkirmisherD:3slain by Crazy Yiuf (a +2 quarterstaff of chaos)52,53400:09:1402018-02-28 05:22:200.22-a0
208GrHuShooterD:3slain by Chic's ghost53,59500:11:0002018-02-28 05:11:420.22-a0
21GrHuShooterD:2slain by a worm21,04200:02:2302018-02-28 05:00:280.22-a0
65GrHuShooterD:2slain by a goblin (a +0 dagger) (led by Robin)41,65100:04:1802018-02-28 04:57:500.22-a0
42,183MiBeTrogSevererLair:6blasted by a fire dragon (blast of flame)1316,73001:05:0302018-02-28 02:39:570.22-a0
27DsBeTrogChopperD:2slain by an adder21,14700:01:5102018-02-28 01:33:450.22-a0
35DsBeTrogChopperD:2slain by Jessica31,25200:02:4602018-02-28 01:31:170.22-a0
7DsBeTrogSkirmisherD:1slain by a gnoll (a +0 whip)122800:00:4602018-02-28 01:28:200.22-a0
44SEAsSneakD:2slain by Natasha31,45200:04:5702018-02-28 01:27:080.22-a0
ScoreCharacterGodTitlePlaceEndXLTurnsDurationRunesDateVersion
11NaTmRuffianD:2slain by a worm285500:01:4102018-03-02 17:52:510.22-a0
430NaTmChangerD:4blasted by an orc priest (divine providence)64,75900:10:5302018-03-02 17:50:060.22-a0
30NaTmChangerD:2slain by Terence (a +0 flail)31,82400:03:1602018-03-02 17:38:570.22-a0
274MfGlPokerD:3slain by Grinder63,76600:11:1102018-03-02 17:35:210.22-a0
78NaTmChangerD:3slain by a gnoll (a +1 flail of holy wrath)43,57200:05:5202018-03-02 05:21:270.22-a0
2NaTmRuffianD:1slain by a hobgoblin114300:00:2102018-03-02 05:15:290.22-a0
18NaTmChangerD:2slain by an adder21,35200:03:0002018-03-02 05:15:000.22-a0
0NaTmRuffianD:1slain by a hobgoblin116000:00:2202018-03-02 05:01:130.22-a0
9NaTmRuffianD:1slain by a gnoll280100:01:4202018-03-02 05:00:430.22-a0
203OpTmInseiD:4slain by lux767's ghost53,36600:15:1702018-03-02 04:35:030.22-a0
105OpTmInseiD:3slain by Sigmund (a +0 scythe)42,39300:06:2702018-03-02 03:31:380.22-a0
340OpTmCheibriadosInseiD:4blasted by an orc priest (divine providence)62,69600:09:1302018-03-02 03:24:470.22-a0
37OpTmInseiD:2slain by an adder31,94500:03:1002018-03-02 03:15:240.22-a0
14OpTmInseiD:1slain by a jackal271400:01:2702018-03-02 03:12:050.22-a0
49OpTmInseiD:3mangled by morty's ghost31,89500:04:0202018-03-02 03:10:280.22-a0
1OpTmInseiD:1slain by a hobgoblin (a +0 club)13700:00:1802018-03-02 03:03:440.22-a0
69OpTmInseiD:3slain by an orc wizard (a +0 dagger)41,81700:03:4702018-03-02 03:03:130.22-a0
2OpTmInseiD:1slain by a leopard gecko17500:01:1802018-03-02 02:59:000.22-a0
302OpTmCheibriadosInseiD:4slain by a gnoll shaman (a +0 whip)64,17900:24:3702018-03-02 02:56:480.22-a0
108OpTmCheibriadosInseiD:3slain by an orc (a +0 mace)41,62600:13:5502018-03-01 20:21:570.22-a0
99OpTmInseiD:3shot by a centaur (arrow)42,35600:14:5302018-03-01 20:07:400.22-a0
65OpTmInseiD:2mangled by a gnoll (a +0 halberd)41,55500:08:3402018-03-01 19:52:250.22-a0
162OpTmCheibriadosInseiD:3slain by a gnoll (a +0 flail)52,71100:20:5702018-03-01 19:43:290.22-a0
770OpTmAshenzariInseiD:6slain by a troll75,08200:37:0202018-03-01 19:16:420.22-a0
207OpTmGozagInseiD:4slain by an adder52,70300:16:3702018-03-01 17:12:220.22-a0
4OpTmInseiD:1slain by a hobgoblin (a +0 club)114600:01:0102018-03-01 16:55:050.22-a0
11OpTmInseiD:1slain by a gnoll (a +0 spear)248100:03:0402018-03-01 16:50:130.22-a0
14OpTmInseiD:1slain by a jackal241600:03:0802018-03-01 16:46:290.22-a0
18OpTmInseiD:1slain by a kobold (a +0 whip)248200:05:1402018-03-01 16:42:530.22-a0
46HONeGrave RobberD:2slain by a giant cockroach32,46400:05:2302018-03-01 05:50:030.22-a0
0DsNeGrave RobberD:1slain by a hobgoblin (a +0 club)16500:00:1702018-03-01 05:44:240.22-a0
43DrNeGrave RobberD:2slain by a goblin (a +0 dagger) (led by Robin)31,24600:03:4002018-03-01 05:43:360.22-a0
0DrNeGrave RobberD:1slain by a frilled lizard14400:00:4402018-03-01 05:39:440.22-a0
913MuSuSif MunaMagicianD:7blasted by a deep elf mage (bolt of fire)710,28100:40:3602018-03-01 05:12:310.22-a0
19MuSuCallerD:2slain by a worker ant21,22300:04:5602018-03-01 04:31:450.22-a0
639GnSuSif MunaCallerD:6mangled by an orc warrior (a +0 mace)76,94700:31:4902018-03-01 04:24:360.22-a0
5,149GnEnNemelex XobehCovertD:9succumbed to a killer bee's poison1010,82101:00:4202018-03-01 03:24:010.22-a0
1,864GnAsOkawaruCovertD:7slain by a wyvern96,36100:25:4002018-03-01 02:01:170.22-a0
49GnAsSneakD:2mangled by an ogre (a +0 giant club)31,17900:03:0402018-03-01 01:35:230.22-a0
54GnAsSneakD:2succumbed to Robin's poison31,03200:04:3202018-03-01 01:32:050.22-a0
235GnAsNemelex XobehCovertD:3slain by an orc priest (a +0 trident)62,02700:08:5302018-03-01 01:27:140.22-a0
109GnAsSneakD:3blasted by Grinder (nerve-wracking pain)42,71500:08:3802018-03-01 01:16:340.22-a0
631MuNeYredelemnulGrave RobberD:6slain by a gnoll (a +0 spear)77,44200:18:5702018-03-01 00:19:500.22-a0
42MuNeGrave RobberD:2slain by Sigmund (a +0 scythe)31,49900:05:0202018-03-01 00:00:330.22-a0
4,629MfBeTrogSpear-BearerD:8mangled by an orc warrior (a +0 glaive)1010,11500:32:0702018-02-28 23:47:070.22-a0
33HOFEFirebugD:2slain by an adder32,08000:03:4602018-02-28 23:13:040.22-a0
111HOFEXomFirebugD:3slain by Terence (a +2 morningstar of crushing)43,42000:10:5402018-02-28 23:08:570.22-a0
0MiFEDuckerD:$got out of the dungeon alive.1700:00:1202018-02-28 22:57:180.22-a0
1,196MiBeTrogCleaverD:6slain by a hornet84,66800:14:1502018-02-28 22:51:160.22-a0
381VpEnSneakD:5succumbed to an adder's poison64,19300:16:0702018-02-28 22:30:570.22-a0
96VpEnDithmenosSneakD:3slain by jerkstore's ghost42,89500:09:4102018-02-28 22:14:370.22-a0
47VpEnSneakD:2slain by a worm31,66200:02:5902018-02-28 22:04:410.22-a0
0VpEnVexingD:1slain by a kobold (a +0 short sword)11700:00:2502018-02-28 22:01:320.22-a0
7VpEnSneakD:1slain by a hobgoblin (a +0 club)127700:01:0402018-02-28 22:00:560.22-a0
53TeAEGustyD:2slain by a goblin (a +0 dagger) (led by Robin)31,79100:08:1302018-02-28 21:59:120.22-a0
96DrTmRuffianD:3blasted by an orc priest (divine providence)42,45400:07:3702018-02-28 21:50:130.22-a0
16DrTmRuffianD:1slain by a hobgoblin253200:02:0002018-02-28 21:40:080.22-a0
723DrArthe Shining OneCharlatanD:5slain by a gnoll73,85000:13:0402018-02-28 21:36:460.22-a0
2,286GrFEVehumetFirebugD:8slain by a two-headed ogre (a cursed -2 giant club)98,01000:40:5302018-02-28 21:19:270.22-a0
4GrFEFirebugD:1slain by a leopard gecko136000:02:0402018-02-28 20:03:180.22-a0
20HEWzMagicianD:1slain by a hobgoblin229600:02:3102018-02-28 19:58:480.22-a0
1HEWzMagicianD:1slain by a jackal136400:00:5002018-02-28 19:56:090.22-a0
0DEWzMagicianD:$got out of the dungeon alive.1100:00:1102018-02-28 19:55:020.22-a0
107DEWzMagicianD:3mangled by Sigmund (a +0 scythe)42,48300:10:5602018-02-28 19:54:240.22-a0
2,830MiBeTrogCleaverD:7slain by a cyclops95,08400:16:2902018-02-28 19:40:360.22-a0
17BaIEChillerD:2slain by a worm286500:03:0902018-02-28 19:20:440.22-a0
1VSIEChillerD:1slain by a hobgoblin (a +0 club)13500:00:4002018-02-28 19:16:570.22-a0
505MfSkPokerD:5blasted by an orc priest (divine providence)75,38600:13:5902018-02-28 19:12:270.22-a0
138HESkCharmwrightD:2blasted by an orc wizard (puff of frost)52,58100:07:3602018-02-28 18:58:050.22-a0
686SEEnSneakD:4blasted by Blork the orc (magic dart)75,82800:23:2802018-02-28 18:45:480.22-a0
3,465MiHuOkawaruArcherD:8slain by a hell hound910,43100:36:2502018-02-28 18:19:330.22-a0
71FoAKLugonuSkirmisherD:12hit from afar by a cyclops (large rock)42,91500:07:3602018-02-28 05:30:100.22-a0
172FoAKLugonuSkirmisherD:3slain by Crazy Yiuf (a +2 quarterstaff of chaos)52,53400:09:1402018-02-28 05:22:200.22-a0
208GrHuShooterD:3slain by Chic's ghost53,59500:11:0002018-02-28 05:11:420.22-a0
21GrHuShooterD:2slain by a worm21,04200:02:2302018-02-28 05:00:280.22-a0
65GrHuShooterD:2slain by a goblin (a +0 dagger) (led by Robin)41,65100:04:1802018-02-28 04:57:500.22-a0
42,183MiBeTrogSevererLair:6blasted by a fire dragon (blast of flame)1316,73001:05:0302018-02-28 02:39:570.22-a0
27DsBeTrogChopperD:2slain by an adder21,14700:01:5102018-02-28 01:33:450.22-a0
35DsBeTrogChopperD:2slain by Jessica31,25200:02:4602018-02-28 01:31:170.22-a0
7DsBeTrogSkirmisherD:1slain by a gnoll (a +0 whip)122800:00:4602018-02-28 01:28:200.22-a0
44SEAsSneakD:2slain by Natasha31,45200:04:5702018-02-28 01:27:080.22-a0
ScoreCharacterGodTitlePlaceEndXLTurnsDurationRunesDateVersion
No games
ScoreCharacterGodTitlePlaceEndXLTurnsDurationRunesDateVersion
2NaTKCheibriadosChopperD:1slain by a hobgoblin165800:00:2102018-12-28 20:01:385.7
0NaTKCheibriadosContemplativeD:3slain by a worker ant62,11900:03:5502018-12-28 20:01:085.7
5NaTKCheibriadosEpochalD:6blasted by a gargoyle (stone arrow)85,03000:08:2602018-12-28 19:56:565.7
0NaTKCheibriadosChopperD:3slain by a worker ant51,96700:02:5902018-12-28 19:48:145.7
1NaTKCheibriadosContemplativeD:4slain by a gnoll (a +0 flail)65,17500:08:4602018-12-28 19:45:075.7
0NaTKCheibriadosChopperD:1slain by a kobold14300:00:4402018-12-28 19:35:505.7
60NaTKCheibriadosBasherD:11mangled by a cyan ugly thing129,01200:32:0302018-12-27 22:39:395.7
4FoTKCheibriadosSkirmisherD:4slain by an ogre (a -2 giant club)83,56100:08:1802018-12-27 01:12:315.7
0FoTKCheibriadosChopperD:2slain by a gnoll (a +2 spear of chaos)338500:01:3602018-12-27 01:04:045.7
0FoTKCheibriadosChopperD:2slain by an adder466900:01:5802018-12-27 01:02:155.7
145FoTKCheibriadosChopperD:4mangled by an ogre (a -1 giant club)72,55900:08:0302018-12-27 01:00:015.7
Last updated 2020-03-09 00:36:00 UTC.